createdAt,value
2019-06-10T00:00:26.777Z,12.63
2019-06-10T00:03:02.865Z,14.13
2019-06-10T00:05:36.018Z,11.55
2019-06-10T00:08:12.032Z,11.60
2019-06-10T00:10:45.129Z,11.38
2019-06-10T00:13:20.940Z,12.50
2019-06-10T00:15:56.662Z,12.63
2019-06-10T00:18:41.499Z,12.35
2019-06-10T00:21:07.061Z,12.47
2019-06-10T00:23:42.076Z,12.95
2019-06-10T00:26:15.879Z,11.45
2019-06-10T00:28:51.321Z,12.18
2019-06-10T00:31:25.270Z,12.75
2019-06-10T00:34:01.322Z,12.00
2019-06-10T00:36:34.627Z,12.28
2019-06-10T00:39:13.113Z,12.25
2019-06-10T00:41:44.773Z,12.68
2019-06-10T00:44:20.527Z,12.13
2019-06-10T00:46:54.170Z,12.13
2019-06-10T00:49:27.979Z,14.47
2019-06-10T00:52:04.189Z,13.08
2019-06-10T00:54:37.755Z,12.28
2019-06-10T00:57:12.381Z,11.75
2019-06-10T00:59:47.197Z,12.23
2019-06-10T01:02:21.464Z,11.93
2019-06-10T01:04:55.291Z,13.18
2019-06-10T01:07:31.138Z,13.25
2019-06-10T01:10:05.094Z,12.47
2019-06-10T01:12:40.694Z,12.13
2019-06-10T01:15:15.290Z,12.30
2019-06-10T01:17:51.128Z,13.00
2019-06-10T01:20:24.748Z,12.13
2019-06-10T01:22:58.441Z,12.15
2019-06-10T01:25:32.185Z,12.20
2019-06-10T01:28:05.955Z,13.58
2019-06-10T01:30:41.280Z,12.90
2019-06-10T01:33:16.418Z,11.97
2019-06-10T01:35:51.465Z,11.93
2019-06-10T01:38:25.407Z,11.70
2019-06-10T01:41:01.330Z,11.43
2019-06-10T01:43:34.847Z,12.13
2019-06-10T01:46:11.323Z,12.78
2019-06-10T01:48:48.144Z,13.68
2019-06-10T01:51:21.302Z,12.10
2019-06-10T01:53:55.603Z,12.98
2019-06-10T01:56:31.341Z,11.45
2019-06-10T01:59:04.823Z,13.60
2019-06-10T02:01:57.393Z,12.58
2019-06-10T02:04:32.081Z,11.73
2019-06-10T02:07:06.182Z,11.60
2019-06-10T02:09:41.090Z,11.50
2019-06-10T02:12:17.554Z,12.23
2019-06-10T02:14:50.959Z,13.68
2019-06-10T02:17:24.671Z,11.80
2019-06-10T02:20:00.982Z,12.33
2019-06-10T02:22:33.997Z,11.57
2019-06-10T02:25:07.871Z,12.43
2019-06-10T02:27:41.672Z,12.37
2019-06-10T02:30:29.777Z,12.00
2019-06-10T02:32:52.380Z,11.78
2019-06-10T02:35:38.734Z,11.90
2019-06-10T02:38:03.517Z,11.00
2019-06-10T02:40:37.545Z,12.05
2019-06-10T02:43:17.462Z,12.45
2019-06-10T02:45:48.806Z,12.73
2019-06-10T02:48:30.141Z,11.83
2019-06-10T02:51:07.638Z,11.73
2019-06-10T02:53:43.372Z,12.28
2019-06-10T02:56:17.757Z,11.78
2019-06-10T02:58:53.527Z,13.03
2019-06-10T03:01:32.560Z,12.58
2019-06-10T03:04:04.500Z,14.45
2019-06-10T03:06:40.254Z,12.05
2019-06-10T03:09:14.377Z,11.97
2019-06-10T03:11:48.586Z,11.73
2019-06-10T03:14:25.278Z,12.00
2019-06-10T03:17:03.163Z,12.20
2019-06-10T03:19:46.881Z,11.93
2019-06-10T03:22:13.117Z,13.10
2019-06-10T03:24:47.058Z,11.85
2019-06-10T03:27:23.151Z,13.05
2019-06-10T03:29:56.359Z,11.45
2019-06-10T03:32:36.562Z,11.97
2019-06-10T03:35:06.168Z,11.63
2019-06-10T03:37:42.223Z,11.93
2019-06-10T03:40:16.487Z,12.58
2019-06-10T03:42:52.017Z,11.25
2019-06-10T03:45:27.200Z,12.15
2019-06-10T03:48:03.757Z,11.88
2019-06-10T03:50:37.385Z,11.90
2019-06-10T03:53:12.851Z,11.60
2019-06-10T03:55:46.953Z,12.03
2019-06-10T03:58:22.063Z,12.45
2019-06-10T04:00:56.391Z,11.55
2019-06-10T04:03:30.027Z,12.45
2019-06-10T04:06:04.099Z,12.18
2019-06-10T04:08:37.943Z,11.25
2019-06-10T04:11:12.251Z,12.30
2019-06-10T04:13:46.352Z,12.43
2019-06-10T04:16:22.261Z,12.43
2019-06-10T04:18:55.818Z,11.35
2019-06-10T04:21:29.644Z,12.00
2019-06-10T04:24:03.421Z,11.93
2019-06-10T04:26:38.179Z,14.15
2019-06-10T04:29:12.930Z,11.78
2019-06-10T04:31:46.885Z,13.18
2019-06-10T04:34:23.762Z,12.73
2019-06-10T04:36:55.980Z,11.90
2019-06-10T04:39:29.831Z,12.70
2019-06-10T04:42:03.570Z,11.85
2019-06-10T04:44:37.381Z,12.73
2019-06-10T04:47:12.083Z,12.40
2019-06-10T04:49:45.869Z,12.40
2019-06-10T04:52:21.237Z,12.05
2019-06-10T04:54:55.259Z,12.13
2019-06-10T04:57:29.648Z,12.63
2019-06-10T05:00:11.011Z,12.50
2019-06-10T05:02:38.971Z,12.68
2019-06-10T05:05:13.207Z,11.88
2019-06-10T05:07:47.418Z,11.65
2019-06-10T05:10:23.697Z,12.47
2019-06-10T05:12:56.849Z,12.53
2019-06-10T05:15:34.151Z,12.53
2019-06-10T05:18:06.734Z,12.68
2019-06-10T05:20:52.004Z,13.35
2019-06-10T05:23:16.085Z,12.63
2019-06-10T05:25:52.274Z,11.93
2019-06-10T05:28:25.993Z,13.45
2019-06-10T05:31:02.807Z,11.93
2019-06-10T05:33:36.251Z,11.90
2019-06-10T05:36:09.914Z,11.97
2019-06-10T05:38:43.797Z,13.62
2019-06-10T05:41:17.737Z,11.28
2019-06-10T05:43:52.444Z,12.88
2019-06-10T05:46:27.312Z,12.23
2019-06-10T05:49:03.103Z,11.88
2019-06-10T05:51:37.121Z,11.48
2019-06-10T05:54:12.786Z,12.18
2019-06-10T05:56:46.703Z,11.70
2019-06-10T05:59:22.611Z,13.75
2019-06-10T06:01:56.131Z,12.45
2019-06-10T06:04:32.584Z,12.78
2019-06-10T06:07:05.636Z,13.08
2019-06-10T06:09:39.527Z,12.10
2019-06-10T06:12:14.284Z,13.13
2019-06-10T06:14:48.249Z,13.35
2019-06-10T06:17:23.603Z,11.97
2019-06-10T06:19:57.755Z,12.37
2019-06-10T06:22:34.317Z,13.78
2019-06-10T06:25:07.810Z,13.98
2019-06-10T06:27:42.365Z,13.35
2019-06-10T06:30:18.938Z,12.53
2019-06-10T06:32:53.338Z,12.70
2019-06-10T06:35:28.457Z,13.38
2019-06-10T06:38:02.688Z,12.05
2019-06-10T06:40:37.590Z,14.30
2019-06-10T06:43:12.571Z,12.53
2019-06-10T06:45:46.384Z,13.08
2019-06-10T06:48:22.603Z,12.75
2019-06-10T06:51:03.988Z,14.28
2019-06-10T06:53:39.556Z,14.98
2019-06-10T06:56:07.134Z,12.35
2019-06-10T06:58:43.236Z,14.55
2019-06-10T07:01:17.261Z,12.40
2019-06-10T07:03:53.585Z,14.50
2019-06-10T07:06:27.776Z,12.15
2019-06-10T07:09:07.744Z,13.13
2019-06-10T07:11:39.859Z,14.65
2019-06-10T07:14:14.967Z,11.85
2019-06-10T07:16:48.942Z,13.25
2019-06-10T07:19:22.791Z,14.53
2019-06-10T07:22:08.742Z,12.13
2019-06-10T07:24:36.009Z,13.13
2019-06-10T07:27:08.575Z,12.03
2019-06-10T07:29:46.929Z,14.55
2019-06-10T07:32:18.468Z,11.73
2019-06-10T07:34:52.827Z,12.20
2019-06-10T07:37:26.829Z,12.23
2019-06-10T07:40:02.908Z,12.47
2019-06-10T07:42:37.462Z,12.25
2019-06-10T07:45:13.193Z,12.68
2019-06-10T07:47:47.223Z,12.23
2019-06-10T07:50:22.681Z,12.65
2019-06-10T07:52:58.670Z,13.08
2019-06-10T07:55:33.337Z,13.25
2019-06-10T07:58:08.597Z,12.60
2019-06-10T08:00:46.479Z,13.70
2019-06-10T08:03:19.294Z,14.10
2019-06-10T08:05:54.975Z,13.13
2019-06-10T08:08:29.069Z,12.00
2019-06-10T08:11:03.655Z,13.50
2019-06-10T08:13:37.678Z,12.33
2019-06-10T08:16:13.066Z,13.40
2019-06-10T08:19:16.138Z,13.10
2019-06-10T08:21:23.781Z,14.75
2019-06-10T08:23:57.815Z,15.90
2019-06-10T08:26:32.423Z,14.13
2019-06-10T08:29:06.701Z,14.33
2019-06-10T08:31:43.661Z,13.93
2019-06-10T08:34:16.754Z,13.95
2019-06-10T08:36:54.189Z,14.38
2019-06-10T08:39:26.868Z,13.05
2019-06-10T08:42:03.146Z,12.23
2019-06-10T08:44:36.833Z,13.55
2019-06-10T08:47:12.426Z,12.43
2019-06-10T08:49:49.029Z,12.58
2019-06-10T08:52:23.732Z,12.60
2019-06-10T08:54:57.971Z,13.40
2019-06-10T08:57:33.499Z,13.50
2019-06-10T09:00:12.558Z,12.00
2019-06-10T09:02:48.360Z,12.82
2019-06-10T09:05:23.255Z,12.23
2019-06-10T09:07:57.093Z,13.75
2019-06-10T09:10:33.777Z,12.43
2019-06-10T09:13:07.403Z,11.97
2019-06-10T09:15:43.767Z,11.50
2019-06-10T09:18:20.074Z,13.40
2019-06-10T09:20:55.989Z,16.48
2019-06-10T09:23:29.373Z,15.90
2019-06-10T09:26:05.080Z,23.77
2019-06-10T09:28:45.034Z,13.62
2019-06-10T09:31:15.992Z,12.13
2019-06-10T09:33:53.390Z,12.93
2019-06-10T09:36:25.446Z,11.63
2019-06-10T09:38:59.118Z,11.68
2019-06-10T09:41:40.068Z,11.97
2019-06-10T09:44:08.532Z,11.33
2019-06-10T09:46:45.879Z,11.05
2019-06-10T09:49:19.052Z,12.23
2019-06-10T09:51:57.364Z,11.97
2019-06-10T09:54:29.874Z,12.03
2019-06-10T09:57:03.955Z,12.30
2019-06-10T09:59:37.747Z,11.90
2019-06-10T10:02:12.568Z,12.20
2019-06-10T10:04:50.521Z,11.93
2019-06-10T10:07:22.636Z,12.00
2019-06-10T10:09:57.483Z,12.03
2019-06-10T10:12:33.156Z,12.65
2019-06-10T10:15:23.296Z,11.12
2019-06-10T10:17:50.763Z,13.62
2019-06-10T10:20:24.037Z,11.75
2019-06-10T10:22:57.767Z,11.40
2019-06-10T10:25:32.820Z,13.55
2019-06-10T10:28:09.487Z,11.05
2019-06-10T10:30:46.029Z,11.50
2019-06-10T10:33:19.095Z,11.60
2019-06-10T10:35:52.803Z,11.15
2019-06-10T10:38:26.633Z,11.05
2019-06-10T10:41:04.202Z,11.33
2019-06-10T10:43:37.840Z,11.50
2019-06-10T10:46:13.975Z,11.00
2019-06-10T10:48:47.132Z,10.63
2019-06-10T10:51:23.059Z,10.45
2019-06-10T10:54:19.013Z,11.35
2019-06-10T10:56:33.974Z,13.68
2019-06-10T10:59:07.414Z,10.80
2019-06-10T11:01:43.745Z,10.58
2019-06-10T11:04:16.996Z,12.28
2019-06-10T11:06:54.401Z,11.05
2019-06-10T11:09:26.938Z,10.70
2019-06-10T11:12:03.376Z,11.12
2019-06-10T11:14:36.215Z,10.05
2019-06-10T11:17:09.975Z,10.28
2019-06-10T11:19:43.735Z,12.55
2019-06-10T11:22:17.389Z,10.15
2019-06-10T11:24:53.581Z,9.53
2019-06-10T11:27:26.602Z,10.40
2019-06-10T11:30:02.432Z,9.75
2019-06-10T11:32:36.311Z,8.80
2019-06-10T11:35:12.187Z,8.73
2019-06-10T11:37:46.749Z,9.60
2019-06-10T11:40:22.415Z,9.43
2019-06-10T11:42:59.481Z,9.50
2019-06-10T11:45:32.849Z,10.05
2019-06-10T11:48:07.012Z,9.98
2019-06-10T11:50:42.833Z,10.20
2019-06-10T11:53:17.673Z,9.80
2019-06-10T11:55:51.785Z,9.78
2019-06-10T11:58:25.719Z,11.10
2019-06-10T12:01:03.064Z,10.32
2019-06-10T12:03:35.779Z,10.75
2019-06-10T12:06:09.617Z,11.03
2019-06-10T12:08:43.907Z,10.48
2019-06-10T12:11:17.835Z,13.60
2019-06-10T12:13:53.229Z,10.45
2019-06-10T12:19:03.704Z,11.20
2019-06-10T12:21:37.502Z,11.68
2019-06-10T12:24:22.883Z,10.90
2019-06-10T12:26:58.378Z,9.83
2019-06-10T12:29:31.314Z,10.75
2019-06-10T12:32:07.389Z,10.35
2019-06-10T12:34:40.721Z,11.05
2019-06-10T12:37:15.909Z,10.45
2019-06-10T12:39:49.895Z,12.85
2019-06-10T12:42:23.934Z,12.05
2019-06-10T12:44:58.910Z,10.03
2019-06-10T12:47:33.424Z,11.80
2019-06-10T12:50:07.820Z,11.12
2019-06-10T12:52:41.641Z,10.95
2019-06-10T12:55:16.323Z,11.95
2019-06-10T12:57:52.163Z,12.35
2019-06-10T13:00:26.517Z,13.05
2019-06-10T13:03:03.733Z,11.80
2019-06-10T13:05:35.937Z,13.50
2019-06-10T13:08:09.731Z,11.60
2019-06-10T13:10:43.675Z,12.80
2019-06-10T13:13:17.727Z,12.00
2019-06-10T13:15:53.153Z,12.10
2019-06-10T13:18:26.907Z,12.37
2019-06-10T13:21:07.290Z,12.93
2019-06-10T13:23:36.376Z,10.80
2019-06-10T13:26:15.076Z,12.73
2019-06-10T13:28:45.480Z,14.78
2019-06-10T13:31:19.313Z,11.38
2019-06-10T13:33:53.107Z,13.32
2019-06-10T13:36:26.971Z,11.97
2019-06-10T13:39:03.974Z,11.03
2019-06-10T13:41:36.248Z,13.32
2019-06-10T13:44:15.203Z,12.80
2019-06-10T13:46:46.638Z,12.63
2019-06-10T13:49:25.181Z,12.23
2019-06-10T13:51:56.005Z,11.53
2019-06-10T13:54:30.856Z,14.20
2019-06-10T13:57:06.595Z,11.93
2019-06-10T13:59:42.954Z,11.60
2019-06-10T14:02:15.598Z,11.48
2019-06-10T14:04:49.420Z,12.00
2019-06-10T14:07:23.457Z,12.00
2019-06-10T14:09:58.353Z,12.80
2019-06-10T14:12:32.450Z,12.10
2019-06-10T14:15:09.356Z,12.88
2019-06-10T14:17:42.470Z,12.37
2019-06-10T14:20:17.699Z,14.05
2019-06-10T14:22:52.998Z,13.38
2019-06-10T14:25:26.825Z,13.18
2019-06-10T14:28:03.208Z,14.23
2019-06-10T14:30:36.230Z,12.82
2019-06-10T14:33:16.660Z,12.70
2019-06-10T14:35:49.992Z,12.85
2019-06-10T14:38:23.905Z,13.98
2019-06-10T14:40:57.660Z,13.80
2019-06-10T14:43:33.159Z,12.30
2019-06-10T14:46:07.414Z,12.93
2019-06-10T14:48:42.666Z,12.63
2019-06-10T14:51:17.261Z,12.35
2019-06-10T14:53:51.172Z,13.55
2019-06-10T14:56:24.862Z,19.07
2019-06-10T14:58:58.675Z,12.88
2019-06-10T15:01:32.883Z,15.40
2019-06-10T15:04:07.863Z,12.98
2019-06-10T15:06:43.216Z,13.48
2019-06-10T15:09:19.833Z,12.95
2019-06-10T15:11:55.369Z,12.20
2019-06-10T15:14:29.187Z,14.18
2019-06-10T15:17:03.038Z,13.78
2019-06-10T15:19:36.663Z,12.73
2019-06-10T15:22:12.632Z,12.70
2019-06-10T15:24:46.130Z,12.68
2019-06-10T15:27:27.551Z,12.28
2019-06-10T15:29:55.419Z,12.35
2019-06-10T15:32:34.669Z,18.07
2019-06-10T15:35:04.974Z,13.38
2019-06-10T15:37:38.646Z,13.68
2019-06-10T15:40:14.028Z,12.35
2019-06-10T15:42:47.932Z,12.63
2019-06-10T15:45:23.120Z,12.68
2019-06-10T15:47:56.962Z,13.35
2019-06-10T15:50:32.366Z,12.23
2019-06-10T15:53:06.293Z,12.43
2019-06-10T15:56:09.230Z,12.13
2019-06-10T15:58:17.377Z,11.78
2019-06-10T16:00:54.336Z,11.85
2019-06-10T16:03:28.119Z,12.47
2019-06-10T16:06:03.203Z,14.90
2019-06-10T16:08:38.307Z,11.95
2019-06-10T16:11:15.406Z,13.58
2019-06-10T16:13:47.688Z,12.65
2019-06-10T16:16:21.445Z,11.93
2019-06-10T16:18:55.419Z,12.20
2019-06-10T16:21:30.156Z,12.18
2019-06-10T16:24:03.816Z,12.90
2019-06-10T16:26:37.554Z,13.98
2019-06-10T16:29:12.282Z,12.13
2019-06-10T16:31:46.097Z,12.37
2019-06-10T16:34:21.239Z,13.05
2019-06-10T16:36:55.334Z,12.63
2019-06-10T16:39:28.961Z,12.73
2019-06-10T16:42:03.175Z,13.22
2019-06-10T16:44:38.414Z,13.88
2019-06-10T16:47:12.580Z,12.90
2019-06-10T16:49:47.608Z,13.98
2019-06-10T16:52:25.657Z,12.55
2019-06-10T16:54:59.278Z,13.65
2019-06-10T16:57:35.205Z,14.98
2019-06-10T17:00:11.995Z,13.13
2019-06-10T17:02:44.886Z,13.65
2019-06-10T17:05:18.575Z,13.32
2019-06-10T17:07:52.741Z,12.88
2019-06-10T17:10:28.238Z,18.52
2019-06-10T17:13:04.584Z,14.47
2019-06-10T17:15:38.264Z,13.10
2019-06-10T17:18:13.110Z,12.95
2019-06-10T17:20:47.409Z,13.28
2019-06-10T17:23:28.057Z,13.40
2019-06-10T17:26:01.946Z,14.45
2019-06-10T17:28:37.044Z,12.18
2019-06-10T17:31:11.057Z,13.00
2019-06-10T17:33:44.834Z,12.63
2019-06-10T17:36:18.618Z,13.22
2019-06-10T17:38:52.893Z,12.58
2019-06-10T17:41:29.327Z,13.03
2019-06-10T17:44:02.734Z,16.62
2019-06-10T17:46:36.454Z,13.70
2019-06-10T17:49:13.088Z,50.12
2019-06-10T17:51:46.727Z,25.00
2019-06-10T17:54:22.508Z,23.32
2019-06-10T17:56:55.995Z,18.42
2019-06-10T17:59:30.893Z,14.80
2019-06-10T18:02:05.319Z,15.15
2019-06-10T18:04:38.996Z,16.20
2019-06-10T18:07:13.189Z,13.45
2019-06-10T18:09:47.015Z,13.60
2019-06-10T18:12:22.404Z,12.80
2019-06-10T18:14:57.571Z,13.55
2019-06-10T18:17:34.796Z,19.30
2019-06-10T18:20:08.223Z,14.43
2019-06-10T18:22:41.985Z,13.68
2019-06-10T18:25:15.741Z,15.65
2019-06-10T18:27:49.636Z,13.55
2019-06-10T18:30:23.557Z,14.70
2019-06-10T18:32:57.199Z,14.35
2019-06-10T18:35:34.135Z,15.38
2019-06-10T18:38:06.605Z,14.20
2019-06-10T18:40:42.848Z,15.75
2019-06-10T18:43:18.260Z,14.30
2019-06-10T18:45:53.233Z,15.13
2019-06-10T18:48:29.040Z,14.95
2019-06-10T18:51:03.169Z,13.95
2019-06-10T18:53:37.090Z,13.83
2019-06-10T18:56:13.006Z,13.98
2019-06-10T18:58:46.991Z,15.30
2019-06-10T19:01:22.663Z,14.07
2019-06-10T19:03:56.348Z,14.58
2019-06-10T19:06:31.294Z,14.00
2019-06-10T19:09:07.154Z,16.25
2019-06-10T19:11:43.107Z,14.45
2019-06-10T19:14:16.473Z,15.70
2019-06-10T19:16:52.284Z,14.98
2019-06-10T19:19:25.747Z,15.80
2019-06-10T19:22:06.206Z,14.53
2019-06-10T19:24:36.725Z,16.17
2019-06-10T19:27:10.530Z,15.10
2019-06-10T19:29:50.746Z,16.65
2019-06-10T19:32:19.896Z,15.55
2019-06-10T19:34:53.910Z,15.25
2019-06-10T19:37:27.702Z,17.25
2019-06-10T19:40:01.460Z,18.07
2019-06-10T19:42:35.985Z,16.75
2019-06-10T19:45:12.521Z,18.42
2019-06-10T19:47:46.844Z,17.20
2019-06-10T19:50:21.045Z,15.23
2019-06-10T19:52:54.930Z,16.05
2019-06-10T19:55:28.566Z,18.87
2019-06-10T19:58:03.665Z,18.73
2019-06-10T20:00:37.816Z,16.48
2019-06-10T20:03:12.034Z,16.52
2019-06-10T20:05:47.140Z,17.50
2019-06-10T20:08:22.673Z,14.75
2019-06-10T20:10:56.714Z,15.05
2019-06-10T20:13:32.430Z,15.28
2019-06-10T20:16:06.089Z,17.35
2019-06-10T20:18:40.508Z,17.25
2019-06-10T20:21:15.656Z,18.27
2019-06-10T20:23:49.324Z,18.12
2019-06-10T20:26:23.196Z,18.15
2019-06-10T20:28:56.848Z,17.98
2019-06-10T20:31:32.529Z,17.42
2019-06-10T20:34:06.111Z,17.90
2019-06-10T20:36:42.444Z,16.23
2019-06-10T20:39:15.650Z,16.20
2019-06-10T20:41:52.379Z,16.95
2019-06-10T20:44:24.917Z,16.97
2019-06-10T20:46:58.680Z,18.23
2019-06-10T20:49:34.270Z,17.32
2019-06-10T20:52:12.353Z,16.05
2019-06-10T20:54:46.432Z,18.95
2019-06-10T20:57:19.266Z,19.55
2019-06-10T20:59:53.138Z,19.67
2019-06-10T21:02:26.981Z,17.90
2019-06-10T21:05:02.773Z,19.15
2019-06-10T21:07:36.239Z,17.32
2019-06-10T21:10:10.192Z,15.95
2019-06-10T21:12:44.908Z,19.57
2019-06-10T21:15:19.595Z,18.45
2019-06-10T21:17:53.438Z,16.90
2019-06-10T21:20:27.310Z,18.40
2019-06-10T21:23:03.034Z,17.32
2019-06-10T21:25:36.528Z,19.25
2019-06-10T21:28:12.978Z,16.70
2019-06-10T21:30:53.383Z,19.42
2019-06-10T21:33:23.510Z,17.30
2019-06-10T21:35:59.164Z,17.87
2019-06-10T21:38:32.962Z,16.85
2019-06-10T21:41:06.780Z,16.77
2019-06-10T21:43:42.514Z,20.62
2019-06-10T21:46:15.958Z,16.80
2019-06-10T21:48:50.569Z,17.40
2019-06-10T21:51:24.363Z,19.87
2019-06-10T21:53:58.457Z,21.37
2019-06-10T21:56:32.946Z,21.12
2019-06-10T21:59:06.868Z,19.85
2019-06-10T22:01:42.959Z,24.18
2019-06-10T22:04:16.278Z,24.60
2019-06-10T22:06:52.907Z,23.42
2019-06-10T22:09:25.934Z,22.87
2019-06-10T22:11:59.699Z,23.98
2019-06-10T22:14:33.422Z,23.73
2019-06-10T22:17:07.415Z,21.90
2019-06-10T22:19:42.732Z,23.15
2019-06-10T22:22:16.653Z,22.93
2019-06-10T22:24:51.296Z,22.70
2019-06-10T22:27:26.048Z,21.87
2019-06-10T22:30:02.688Z,23.92
2019-06-10T22:32:35.514Z,25.45
2019-06-10T22:35:09.375Z,23.67
2019-06-10T22:37:43.424Z,24.30
2019-06-10T22:40:17.152Z,24.43
2019-06-10T22:42:53.684Z,22.95
2019-06-10T22:45:26.480Z,24.45
2019-06-10T22:48:02.775Z,22.02
2019-06-10T22:50:35.905Z,26.07
2019-06-10T22:53:12.096Z,26.02
2019-06-10T22:55:45.166Z,26.65
2019-06-10T22:58:18.919Z,24.15
2019-06-10T23:00:56.232Z,26.97
2019-06-10T23:03:29.141Z,27.48
2019-06-10T23:06:04.773Z,25.90
2019-06-10T23:08:38.543Z,24.32
2019-06-10T23:11:12.995Z,23.62
2019-06-10T23:13:47.172Z,23.80
2019-06-10T23:16:22.244Z,23.30
2019-06-10T23:18:57.168Z,23.20
2019-06-10T23:21:31.581Z,25.35
2019-06-10T23:24:05.363Z,22.82
2019-06-10T23:26:39.176Z,23.73
2019-06-10T23:29:13.092Z,21.27
2019-06-10T23:31:53.997Z,21.52
2019-06-10T23:34:23.220Z,24.70
2019-06-10T23:36:58.758Z,26.25
2019-06-10T23:39:33.591Z,25.40
2019-06-10T23:42:07.586Z,23.92
2019-06-10T23:44:41.376Z,24.32
2019-06-10T23:47:15.231Z,24.72
2019-06-10T23:49:49.176Z,27.73
2019-06-10T23:52:22.924Z,25.95
2019-06-10T23:54:57.900Z,28.57
2019-06-10T23:57:32.937Z,27.37
